sensor_id;sensor_type;location;lat;lon;timestamp;P1;durP1;ratioP1;P2;durP2;ratioP2
31378;SDS011;61664;48.112;11.662;2022-11-15T00:01:06;2.35;;;2.15;;
31378;SDS011;61664;48.112;11.662;2022-11-15T00:03:44;2.58;;;2.35;;
31378;SDS011;61664;48.112;11.662;2022-11-15T00:06:12;2.35;;;2.15;;
31378;SDS011;61664;48.112;11.662;2022-11-15T00:08:39;2.67;;;2.47;;
31378;SDS011;61664;48.112;11.662;2022-11-15T00:11:06;2.72;;;2.40;;
31378;SDS011;61664;48.112;11.662;2022-11-15T00:13:35;2.63;;;2.42;;
31378;SDS011;61664;48.112;11.662;2022-11-15T00:16:02;2.78;;;2.30;;
31378;SDS011;61664;48.112;11.662;2022-11-15T00:18:30;2.42;;;2.22;;
31378;SDS011;61664;48.112;11.662;2022-11-15T00:21:02;2.67;;;2.47;;
31378;SDS011;61664;48.112;11.662;2022-11-15T00:23:36;2.58;;;2.35;;
31378;SDS011;61664;48.112;11.662;2022-11-15T00:26:03;2.60;;;2.40;;
31378;SDS011;61664;48.112;11.662;2022-11-15T00:28:31;2.88;;;2.15;;
31378;SDS011;61664;48.112;11.662;2022-11-15T00:31:05;2.47;;;2.28;;
31378;SDS011;61664;48.112;11.662;2022-11-15T00:33:37;2.20;;;2.00;;
31378;SDS011;61664;48.112;11.662;2022-11-15T00:36:05;2.95;;;2.33;;
31378;SDS011;61664;48.112;11.662;2022-11-15T00:38:38;2.60;;;2.40;;
31378;SDS011;61664;48.112;11.662;2022-11-15T00:41:07;2.53;;;2.33;;
31378;SDS011;61664;48.112;11.662;2022-11-15T00:43:35;2.67;;;2.47;;
31378;SDS011;61664;48.112;11.662;2022-11-15T00:46:03;2.78;;;2.08;;
31378;SDS011;61664;48.112;11.662;2022-11-15T00:48:30;2.42;;;2.22;;
31378;SDS011;61664;48.112;11.662;2022-11-15T00:50:57;3.28;;;2.72;;
31378;SDS011;61664;48.112;11.662;2022-11-15T00:53:24;2.60;;;2.40;;
31378;SDS011;61664;48.112;11.662;2022-11-15T00:55:52;2.53;;;2.30;;
31378;SDS011;61664;48.112;11.662;2022-11-15T00:58:21;2.55;;;2.35;;
31378;SDS011;61664;48.112;11.662;2022-11-15T01:00:48;2.22;;;2.03;;
31378;SDS011;61664;48.112;11.662;2022-11-15T01:03:15;2.13;;;1.92;;
31378;SDS011;61664;48.112;11.662;2022-11-15T01:05:42;2.70;;;2.50;;
31378;SDS011;61664;48.112;11.662;2022-11-15T01:08:12;2.58;;;2.35;;
31378;SDS011;61664;48.112;11.662;2022-11-15T01:10:41;2.90;;;2.70;;
31378;SDS011;61664;48.112;11.662;2022-11-15T01:13:08;2.42;;;2.22;;
31378;SDS011;61664;48.112;11.662;2022-11-15T01:15:38;2.65;;;2.20;;
31378;SDS011;61664;48.112;11.662;2022-11-15T01:18:07;2.47;;;2.28;;
31378;SDS011;61664;48.112;11.662;2022-11-15T01:20:34;2.50;;;2.10;;
31378;SDS011;61664;48.112;11.662;2022-11-15T01:23:07;1.77;;;1.67;;
31378;SDS011;61664;48.112;11.662;2022-11-15T01:25:35;2.20;;;2.00;;
31378;SDS011;61664;48.112;11.662;2022-11-15T01:28:02;2.20;;;2.00;;
31378;SDS011;61664;48.112;11.662;2022-11-15T01:30:28;1.95;;;1.75;;
31378;SDS011;61664;48.112;11.662;2022-11-15T01:32:55;2.20;;;2.00;;
31378;SDS011;61664;48.112;11.662;2022-11-15T01:35:23;2.40;;;2.20;;
31378;SDS011;61664;48.112;11.662;2022-11-15T01:37:50;2.60;;;2.40;;
31378;SDS011;61664;48.112;11.662;2022-11-15T01:40:17;2.63;;;2.42;;
31378;SDS011;61664;48.112;11.662;2022-11-15T01:42:44;1.60;;;1.50;;
31378;SDS011;61664;48.112;11.662;2022-11-15T01:45:12;2.50;;;2.20;;
31378;SDS011;61664;48.112;11.662;2022-11-15T01:47:43;1.95;;;1.85;;
31378;SDS011;61664;48.112;11.662;2022-11-15T01:50:20;1.83;;;1.70;;
31378;SDS011;61664;48.112;11.662;2022-11-15T01:52:58;1.70;;;1.60;;
31378;SDS011;61664;48.112;11.662;2022-11-15T01:55:26;1.85;;;1.75;;
31378;SDS011;61664;48.112;11.662;2022-11-15T01:57:55;2.00;;;1.80;;
31378;SDS011;61664;48.112;11.662;2022-11-15T02:00:28;2.35;;;2.15;;
31378;SDS011;61664;48.112;11.662;2022-11-15T02:02:57;1.45;;;1.35;;
31378;SDS011;61664;48.112;11.662;2022-11-15T02:05:24;2.78;;;1.88;;
31378;SDS011;61664;48.112;11.662;2022-11-15T02:07:51;2.45;;;1.73;;
31378;SDS011;61664;48.112;11.662;2022-11-15T02:10:21;1.83;;;1.73;;
31378;SDS011;61664;48.112;11.662;2022-11-15T02:12:50;1.70;;;1.60;;
31378;SDS011;61664;48.112;11.662;2022-11-15T02:15:19;2.03;;;1.52;;
31378;SDS011;61664;48.112;11.662;2022-11-15T02:39:20;1.13;;;1.05;;
31378;SDS011;61664;48.112;11.662;2022-11-15T02:42:13;1.30;;;1.20;;
31378;SDS011;61664;48.112;11.662;2022-11-15T02:45:05;1.25;;;1.15;;
31378;SDS011;61664;48.112;11.662;2022-11-15T02:47:40;1.23;;;1.13;;
31378;SDS011;61664;48.112;11.662;2022-11-15T02:50:18;1.07;;;0.93;;
31378;SDS011;61664;48.112;11.662;2022-11-15T02:52:51;1.42;;;1.33;;
31378;SDS011;61664;48.112;11.662;2022-11-15T02:55:37;1.77;;;1.67;;
31378;SDS011;61664;48.112;11.662;2022-11-15T03:01:12;1.30;;;1.20;;
31378;SDS011;61664;48.112;11.662;2022-11-15T03:07:23;1.10;;;1.00;;
31378;SDS011;61664;48.112;11.662;2022-11-15T03:10:06;1.02;;;1.00;;
31378;SDS011;61664;48.112;11.662;2022-11-15T03:12:53;1.27;;;1.17;;
31378;SDS011;61664;48.112;11.662;2022-11-15T03:15:21;1.38;;;1.25;;
31378;SDS011;61664;48.112;11.662;2022-11-15T03:18:02;1.48;;;1.38;;
31378;SDS011;61664;48.112;11.662;2022-11-15T03:20:36;1.27;;;1.17;;
31378;SDS011;61664;48.112;11.662;2022-11-15T03:23:04;1.60;;;1.50;;
31378;SDS011;61664;48.112;11.662;2022-11-15T03:25:36;1.55;;;1.45;;
31378;SDS011;61664;48.112;11.662;2022-11-15T03:28:10;1.30;;;1.20;;
31378;SDS011;61664;48.112;11.662;2022-11-15T03:30:44;1.58;;;1.48;;
31378;SDS011;61664;48.112;11.662;2022-11-15T03:33:15;1.38;;;1.27;;
31378;SDS011;61664;48.112;11.662;2022-11-15T03:35:45;1.40;;;1.25;;
31378;SDS011;61664;48.112;11.662;2022-11-15T03:38:16;2.25;;;1.42;;
31378;SDS011;61664;48.112;11.662;2022-11-15T03:40:59;1.63;;;1.52;;
31378;SDS011;61664;48.112;11.662;2022-11-15T03:46:41;1.73;;;1.63;;
31378;SDS011;61664;48.112;11.662;2022-11-15T03:49:25;1.55;;;1.25;;
31378;SDS011;61664;48.112;11.662;2022-11-15T03:52:00;1.98;;;1.67;;
31378;SDS011;61664;48.112;11.662;2022-11-15T03:54:30;1.27;;;1.17;;
31378;SDS011;61664;48.112;11.662;2022-11-15T03:56:57;1.33;;;1.23;;
31378;SDS011;61664;48.112;11.662;2022-11-15T03:59:24;1.48;;;1.38;;
31378;SDS011;61664;48.112;11.662;2022-11-15T04:01:50;1.35;;;1.25;;
31378;SDS011;61664;48.112;11.662;2022-11-15T04:04:17;1.65;;;1.55;;
31378;SDS011;61664;48.112;11.662;2022-11-15T04:06:44;1.27;;;1.17;;
31378;SDS011;61664;48.112;11.662;2022-11-15T04:09:11;1.58;;;1.48;;
31378;SDS011;61664;48.112;11.662;2022-11-15T04:11:38;1.83;;;1.52;;
31378;SDS011;61664;48.112;11.662;2022-11-15T04:14:05;1.40;;;1.30;;
31378;SDS011;61664;48.112;11.662;2022-11-15T04:16:32;1.20;;;1.00;;
31378;SDS011;61664;48.112;11.662;2022-11-15T04:18:59;1.25;;;1.15;;
31378;SDS011;61664;48.112;11.662;2022-11-15T04:21:44;0.80;;;0.80;;
31378;SDS011;61664;48.112;11.662;2022-11-15T04:24:29;0.80;;;0.80;;
31378;SDS011;61664;48.112;11.662;2022-11-15T04:26:56;1.17;;;1.08;;
31378;SDS011;61664;48.112;11.662;2022-11-15T04:29:26;1.10;;;1.07;;
31378;SDS011;61664;48.112;11.662;2022-11-15T04:32:02;1.38;;;1.27;;
31378;SDS011;61664;48.112;11.662;2022-11-15T04:34:32;1.13;;;1.10;;
31378;SDS011;61664;48.112;11.662;2022-11-15T04:36:59;1.00;;;1.00;;
31378;SDS011;61664;48.112;11.662;2022-11-15T04:39:38;0.90;;;0.90;;
31378;SDS011;61664;48.112;11.662;2022-11-15T04:42:06;1.25;;;1.15;;
31378;SDS011;61664;48.112;11.662;2022-11-15T04:44:34;1.20;;;1.10;;
31378;SDS011;61664;48.112;11.662;2022-11-15T04:47:01;0.73;;;0.73;;
31378;SDS011;61664;48.112;11.662;2022-11-15T04:49:28;2.13;;;1.23;;
31378;SDS011;61664;48.112;11.662;2022-11-15T04:51:55;1.10;;;1.00;;
31378;SDS011;61664;48.112;11.662;2022-11-15T04:54:22;1.25;;;1.15;;
31378;SDS011;61664;48.112;11.662;2022-11-15T04:56:49;1.58;;;1.48;;
31378;SDS011;61664;48.112;11.662;2022-11-15T04:59:16;1.15;;;1.05;;
31378;SDS011;61664;48.112;11.662;2022-11-15T05:01:43;1.30;;;1.23;;
31378;SDS011;61664;48.112;11.662;2022-11-15T05:04:10;1.60;;;1.50;;
31378;SDS011;61664;48.112;11.662;2022-11-15T05:06:47;1.58;;;1.33;;
31378;SDS011;61664;48.112;11.662;2022-11-15T05:09:18;1.30;;;1.23;;
31378;SDS011;61664;48.112;11.662;2022-11-15T05:11:46;1.48;;;1.30;;
31378;SDS011;61664;48.112;11.662;2022-11-15T05:14:13;1.25;;;0.98;;
31378;SDS011;61664;48.112;11.662;2022-11-15T05:16:40;1.08;;;1.05;;
31378;SDS011;61664;48.112;11.662;2022-11-15T05:19:26;1.10;;;1.00;;
31378;SDS011;61664;48.112;11.662;2022-11-15T05:21:53;0.95;;;0.95;;
31378;SDS011;61664;48.112;11.662;2022-11-15T05:24:19;0.93;;;0.82;;
31378;SDS011;61664;48.112;11.662;2022-11-15T05:26:46;1.25;;;1.15;;
31378;SDS011;61664;48.112;11.662;2022-11-15T05:29:13;0.85;;;0.85;;
31378;SDS011;61664;48.112;11.662;2022-11-15T05:31:40;1.40;;;1.30;;
31378;SDS011;61664;48.112;11.662;2022-11-15T05:34:08;1.20;;;1.10;;
31378;SDS011;61664;48.112;11.662;2022-11-15T05:36:36;1.30;;;1.20;;
31378;SDS011;61664;48.112;11.662;2022-11-15T05:39:08;1.00;;;0.95;;
31378;SDS011;61664;48.112;11.662;2022-11-15T05:41:42;1.25;;;1.15;;
31378;SDS011;61664;48.112;11.662;2022-11-15T05:44:19;1.13;;;1.00;;
31378;SDS011;61664;48.112;11.662;2022-11-15T05:46:49;1.40;;;0.95;;
31378;SDS011;61664;48.112;11.662;2022-11-15T05:49:21;0.80;;;0.80;;
31378;SDS011;61664;48.112;11.662;2022-11-15T05:51:55;2.08;;;1.17;;
31378;SDS011;61664;48.112;11.662;2022-11-15T05:54:24;1.42;;;1.33;;
31378;SDS011;61664;48.112;11.662;2022-11-15T05:56:51;1.42;;;1.33;;
31378;SDS011;61664;48.112;11.662;2022-11-15T05:59:21;1.05;;;1.05;;
31378;SDS011;61664;48.112;11.662;2022-11-15T06:01:48;0.93;;;0.93;;
31378;SDS011;61664;48.112;11.662;2022-11-15T06:04:15;1.17;;;1.17;;
31378;SDS011;61664;48.112;11.662;2022-11-15T06:06:42;1.60;;;1.35;;
31378;SDS011;61664;48.112;11.662;2022-11-15T06:09:09;2.25;;;1.27;;
31378;SDS011;61664;48.112;11.662;2022-11-15T06:11:36;1.50;;;1.40;;
31378;SDS011;61664;48.112;11.662;2022-11-15T06:14:03;1.33;;;1.23;;
31378;SDS011;61664;48.112;11.662;2022-11-15T06:16:30;2.10;;;1.55;;
31378;SDS011;61664;48.112;11.662;2022-11-15T06:18:57;1.80;;;1.70;;
31378;SDS011;61664;48.112;11.662;2022-11-15T06:21:24;2.30;;;1.48;;
31378;SDS011;61664;48.112;11.662;2022-11-15T06:23:53;1.50;;;1.40;;
31378;SDS011;61664;48.112;11.662;2022-11-15T06:26:20;1.92;;;1.60;;
31378;SDS011;61664;48.112;11.662;2022-11-15T06:28:47;1.50;;;1.40;;
31378;SDS011;61664;48.112;11.662;2022-11-15T06:31:14;1.65;;;1.55;;
31378;SDS011;61664;48.112;11.662;2022-11-15T06:33:41;1.33;;;1.20;;
31378;SDS011;61664;48.112;11.662;2022-11-15T06:36:09;1.40;;;1.30;;
31378;SDS011;61664;48.112;11.662;2022-11-15T06:38:43;3.25;;;1.38;;
31378;SDS011;61664;48.112;11.662;2022-11-15T06:41:11;1.75;;;1.65;;
31378;SDS011;61664;48.112;11.662;2022-11-15T06:43:40;1.80;;;1.70;;
31378;SDS011;61664;48.112;11.662;2022-11-15T06:46:07;4.85;;;2.40;;
31378;SDS011;61664;48.112;11.662;2022-11-15T06:48:35;1.85;;;1.70;;
31378;SDS011;61664;48.112;11.662;2022-11-15T06:51:04;2.88;;;1.48;;
31378;SDS011;61664;48.112;11.662;2022-11-15T06:53:31;1.85;;;1.75;;
31378;SDS011;61664;48.112;11.662;2022-11-15T06:56:03;2.45;;;2.05;;
31378;SDS011;61664;48.112;11.662;2022-11-15T06:58:32;4.63;;;1.73;;
31378;SDS011;61664;48.112;11.662;2022-11-15T07:01:10;2.47;;;2.10;;
31378;SDS011;61664;48.112;11.662;2022-11-15T07:03:39;2.30;;;1.77;;
31378;SDS011;61664;48.112;11.662;2022-11-15T07:06:08;5.90;;;1.60;;
31378;SDS011;61664;48.112;11.662;2022-11-15T07:08:36;2.65;;;1.55;;
31378;SDS011;61664;48.112;11.662;2022-11-15T07:11:05;3.20;;;2.25;;
31378;SDS011;61664;48.112;11.662;2022-11-15T07:13:34;3.38;;;2.25;;
31378;SDS011;61664;48.112;11.662;2022-11-15T07:16:04;2.55;;;2.10;;
31378;SDS011;61664;48.112;11.662;2022-11-15T07:18:34;1.67;;;1.58;;
31378;SDS011;61664;48.112;11.662;2022-11-15T07:21:03;4.53;;;2.60;;
31378;SDS011;61664;48.112;11.662;2022-11-15T07:23:33;3.70;;;3.00;;
31378;SDS011;61664;48.112;11.662;2022-11-15T07:26:04;4.68;;;2.63;;
31378;SDS011;61664;48.112;11.662;2022-11-15T07:28:31;3.38;;;1.58;;
31378;SDS011;61664;48.112;11.662;2022-11-15T07:31:03;2.90;;;2.22;;
31378;SDS011;61664;48.112;11.662;2022-11-15T07:33:31;4.10;;;2.28;;
31378;SDS011;61664;48.112;11.662;2022-11-15T07:36:00;2.85;;;2.50;;
31378;SDS011;61664;48.112;11.662;2022-11-15T07:38:28;3.30;;;2.55;;
31378;SDS011;61664;48.112;11.662;2022-11-15T07:40:57;2.50;;;2.13;;
31378;SDS011;61664;48.112;11.662;2022-11-15T07:43:26;2.65;;;2.38;;
31378;SDS011;61664;48.112;11.662;2022-11-15T07:45:57;3.85;;;2.17;;
31378;SDS011;61664;48.112;11.662;2022-11-15T07:48:25;1.98;;;1.75;;
31378;SDS011;61664;48.112;11.662;2022-11-15T07:51:10;2.10;;;1.90;;
31378;SDS011;61664;48.112;11.662;2022-11-15T07:53:40;5.68;;;2.33;;
31378;SDS011;61664;48.112;11.662;2022-11-15T07:56:10;2.05;;;1.85;;
31378;SDS011;61664;48.112;11.662;2022-11-15T07:58:37;2.65;;;2.30;;
31378;SDS011;61664;48.112;11.662;2022-11-15T08:01:05;2.25;;;2.05;;
31378;SDS011;61664;48.112;11.662;2022-11-15T08:03:35;2.72;;;2.03;;
31378;SDS011;61664;48.112;11.662;2022-11-15T08:06:03;3.25;;;2.45;;
31378;SDS011;61664;48.112;11.662;2022-11-15T08:08:30;4.20;;;2.78;;
31378;SDS011;61664;48.112;11.662;2022-11-15T08:10:57;2.55;;;2.35;;
31378;SDS011;61664;48.112;11.662;2022-11-15T08:13:25;2.10;;;2.00;;
31378;SDS011;61664;48.112;11.662;2022-11-15T08:15:56;1.63;;;1.52;;
31378;SDS011;61664;48.112;11.662;2022-11-15T08:18:25;2.15;;;1.95;;
31378;SDS011;61664;48.112;11.662;2022-11-15T08:20:52;1.90;;;1.80;;
31378;SDS011;61664;48.112;11.662;2022-11-15T08:23:19;2.08;;;1.92;;
31378;SDS011;61664;48.112;11.662;2022-11-15T08:25:46;4.15;;;2.10;;
31378;SDS011;61664;48.112;11.662;2022-11-15T08:28:15;2.35;;;2.08;;
31378;SDS011;61664;48.112;11.662;2022-11-15T08:30:43;2.85;;;2.58;;
31378;SDS011;61664;48.112;11.662;2022-11-15T08:33:12;2.50;;;2.30;;
31378;SDS011;61664;48.112;11.662;2022-11-15T08:35:40;2.28;;;2.10;;
31378;SDS011;61664;48.112;11.662;2022-11-15T08:38:09;2.15;;;1.98;;
31378;SDS011;61664;48.112;11.662;2022-11-15T08:40:36;1.63;;;1.52;;
31378;SDS011;61664;48.112;11.662;2022-11-15T08:43:04;1.30;;;1.25;;
31378;SDS011;61664;48.112;11.662;2022-11-15T08:45:31;1.65;;;1.55;;
31378;SDS011;61664;48.112;11.662;2022-11-15T08:48:02;1.50;;;1.40;;
31378;SDS011;61664;48.112;11.662;2022-11-15T08:50:30;1.40;;;1.30;;
31378;SDS011;61664;48.112;11.662;2022-11-15T08:52:57;1.30;;;1.20;;
31378;SDS011;61664;48.112;11.662;2022-11-15T08:55:29;0.95;;;0.95;;
31378;SDS011;61664;48.112;11.662;2022-11-15T08:57:57;1.20;;;1.20;;
31378;SDS011;61664;48.112;11.662;2022-11-15T09:00:24;1.50;;;1.40;;
31378;SDS011;61664;48.112;11.662;2022-11-15T09:02:51;1.55;;;1.02;;
31378;SDS011;61664;48.112;11.662;2022-11-15T09:05:18;3.00;;;1.25;;
31378;SDS011;61664;48.112;11.662;2022-11-15T09:07:44;1.63;;;1.08;;
31378;SDS011;61664;48.112;11.662;2022-11-15T09:10:11;1.02;;;1.02;;
31378;SDS011;61664;48.112;11.662;2022-11-15T09:12:38;0.98;;;0.98;;
31378;SDS011;61664;48.112;11.662;2022-11-15T09:15:05;0.90;;;0.90;;
31378;SDS011;61664;48.112;11.662;2022-11-15T09:17:33;1.60;;;1.23;;
31378;SDS011;61664;48.112;11.662;2022-11-15T09:20:00;1.30;;;1.20;;
31378;SDS011;61664;48.112;11.662;2022-11-15T09:22:27;1.58;;;1.48;;
31378;SDS011;61664;48.112;11.662;2022-11-15T09:24:54;1.48;;;1.38;;
31378;SDS011;61664;48.112;11.662;2022-11-15T09:27:21;1.40;;;1.30;;
31378;SDS011;61664;48.112;11.662;2022-11-15T09:29:48;1.15;;;1.10;;
31378;SDS011;61664;48.112;11.662;2022-11-15T09:32:15;1.00;;;1.00;;
31378;SDS011;61664;48.112;11.662;2022-11-15T09:34:42;0.80;;;0.80;;
31378;SDS011;61664;48.112;11.662;2022-11-15T09:37:09;0.80;;;0.80;;
31378;SDS011;61664;48.112;11.662;2022-11-15T09:39:36;0.80;;;0.80;;
31378;SDS011;61664;48.112;11.662;2022-11-15T09:50:46;1.08;;;0.88;;
31378;SDS011;61664;48.112;11.662;2022-11-15T09:53:24;1.13;;;0.98;;
31378;SDS011;61664;48.112;11.662;2022-11-15T09:56:20;1.15;;;0.88;;
31378;SDS011;61664;48.112;11.662;2022-11-15T09:59:05;1.25;;;0.80;;
31378;SDS011;61664;48.112;11.662;2022-11-15T10:02:00;1.00;;;0.75;;
31378;SDS011;61664;48.112;11.662;2022-11-15T10:04:57;0.52;;;0.52;;
31378;SDS011;61664;48.112;11.662;2022-11-15T10:07:38;2.70;;;0.50;;
31378;SDS011;61664;48.112;11.662;2022-11-15T10:13:13;0.80;;;0.80;;
31378;SDS011;61664;48.112;11.662;2022-11-15T10:15:47;1.75;;;0.60;;
31378;SDS011;61664;48.112;11.662;2022-11-15T10:21:16;0.80;;;0.80;;
31378;SDS011;61664;48.112;11.662;2022-11-15T10:23:48;0.85;;;0.85;;
31378;SDS011;61664;48.112;11.662;2022-11-15T10:26:17;1.13;;;1.02;;
31378;SDS011;61664;48.112;11.662;2022-11-15T10:28:44;0.80;;;0.80;;
31378;SDS011;61664;48.112;11.662;2022-11-15T10:31:26;0.60;;;0.60;;
31378;SDS011;61664;48.112;11.662;2022-11-15T10:34:12;0.85;;;0.85;;
31378;SDS011;61664;48.112;11.662;2022-11-15T10:36:46;2.42;;;1.10;;
31378;SDS011;61664;48.112;11.662;2022-11-15T10:39:25;0.70;;;0.70;;
31378;SDS011;61664;48.112;11.662;2022-11-15T10:41:53;1.00;;;1.00;;
31378;SDS011;61664;48.112;11.662;2022-11-15T10:44:44;0.88;;;0.80;;
31378;SDS011;61664;48.112;11.662;2022-11-15T10:47:25;0.68;;;0.68;;
31378;SDS011;61664;48.112;11.662;2022-11-15T10:50:07;0.60;;;0.60;;
31378;SDS011;61664;48.112;11.662;2022-11-15T10:52:54;0.80;;;0.80;;
31378;SDS011;61664;48.112;11.662;2022-11-15T10:55:22;0.65;;;0.65;;
31378;SDS011;61664;48.112;11.662;2022-11-15T10:58:01;1.25;;;1.17;;
31378;SDS011;61664;48.112;11.662;2022-11-15T11:00:47;0.67;;;0.67;;
31378;SDS011;61664;48.112;11.662;2022-11-15T11:03:25;0.77;;;0.77;;
31378;SDS011;61664;48.112;11.662;2022-11-15T11:06:17;0.60;;;0.50;;
31378;SDS011;61664;48.112;11.662;2022-11-15T11:12:09;0.60;;;0.60;;
31378;SDS011;61664;48.112;11.662;2022-11-15T11:14:38;0.82;;;0.80;;
31378;SDS011;61664;48.112;11.662;2022-11-15T11:23:19;0.60;;;0.60;;
31378;SDS011;61664;48.112;11.662;2022-11-15T11:26:42;0.70;;;0.70;;
31378;SDS011;61664;48.112;11.662;2022-11-15T11:29:28;0.50;;;0.50;;
31378;SDS011;61664;48.112;11.662;2022-11-15T11:38:10;0.50;;;0.50;;
31378;SDS011;61664;48.112;11.662;2022-11-15T11:41:38;0.52;;;0.52;;
31378;SDS011;61664;48.112;11.662;2022-11-15T11:47:30;0.60;;;0.60;;
31378;SDS011;61664;48.112;11.662;2022-11-15T11:50:44;0.65;;;0.50;;
31378;SDS011;61664;48.112;11.662;2022-11-15T11:52:56;0.63;;;0.63;;
31378;SDS011;61664;48.112;11.662;2022-11-15T11:55:34;0.60;;;0.60;;
31378;SDS011;61664;48.112;11.662;2022-11-15T11:58:25;0.75;;;0.60;;
31378;SDS011;61664;48.112;11.662;2022-11-15T12:01:26;0.70;;;0.63;;
31378;SDS011;61664;48.112;11.662;2022-11-15T12:03:59;1.15;;;0.68;;
31378;SDS011;61664;48.112;11.662;2022-11-15T12:06:32;0.70;;;0.65;;
31378;SDS011;61664;48.112;11.662;2022-11-15T12:09:18;0.45;;;0.45;;
31378;SDS011;61664;48.112;11.662;2022-11-15T12:12:05;0.38;;;0.38;;
31378;SDS011;61664;48.112;11.662;2022-11-15T12:15:00;1.20;;;0.65;;
31378;SDS011;61664;48.112;11.662;2022-11-15T12:17:37;1.33;;;0.70;;
31378;SDS011;61664;48.112;11.662;2022-11-15T12:20:17;0.60;;;0.60;;
31378;SDS011;61664;48.112;11.662;2022-11-15T12:33:30;0.70;;;0.70;;
31378;SDS011;61664;48.112;11.662;2022-11-15T12:41:29;0.70;;;0.70;;
31378;SDS011;61664;48.112;11.662;2022-11-15T12:43:59;0.65;;;0.65;;
31378;SDS011;61664;48.112;11.662;2022-11-15T12:49:00;0.75;;;0.70;;
31378;SDS011;61664;48.112;11.662;2022-11-15T12:59:50;0.77;;;0.77;;
31378;SDS011;61664;48.112;11.662;2022-11-15T13:02:50;0.80;;;0.73;;
31378;SDS011;61664;48.112;11.662;2022-11-15T13:05:55;0.70;;;0.70;;
31378;SDS011;61664;48.112;11.662;2022-11-15T13:08:35;1.23;;;0.82;;
31378;SDS011;61664;48.112;11.662;2022-11-15T13:17:40;1.35;;;0.63;;
31378;SDS011;61664;48.112;11.662;2022-11-15T13:25:47;0.90;;;0.90;;
31378;SDS011;61664;48.112;11.662;2022-11-15T13:28:24;0.80;;;0.80;;
31378;SDS011;61664;48.112;11.662;2022-11-15T13:31:12;0.80;;;0.80;;
31378;SDS011;61664;48.112;11.662;2022-11-15T13:33:50;0.70;;;0.70;;
31378;SDS011;61664;48.112;11.662;2022-11-15T13:36:19;0.68;;;0.68;;
31378;SDS011;61664;48.112;11.662;2022-11-15T13:38:54;0.73;;;0.73;;
31378;SDS011;61664;48.112;11.662;2022-11-15T13:41:24;1.60;;;1.00;;
31378;SDS011;61664;48.112;11.662;2022-11-15T13:43:57;0.88;;;0.88;;
31378;SDS011;61664;48.112;11.662;2022-11-15T13:46:30;0.68;;;0.68;;
31378;SDS011;61664;48.112;11.662;2022-11-15T13:49:09;0.50;;;0.50;;
31378;SDS011;61664;48.112;11.662;2022-11-15T13:51:40;1.00;;;0.85;;
31378;SDS011;61664;48.112;11.662;2022-11-15T13:56:57;0.90;;;0.90;;
31378;SDS011;61664;48.112;11.662;2022-11-15T13:59:35;0.82;;;0.65;;
31378;SDS011;61664;48.112;11.662;2022-11-15T14:02:13;0.85;;;0.85;;
31378;SDS011;61664;48.112;11.662;2022-11-15T14:04:48;1.23;;;1.10;;
31378;SDS011;61664;48.112;11.662;2022-11-15T14:07:26;0.75;;;0.75;;
31378;SDS011;61664;48.112;11.662;2022-11-15T14:09:55;0.93;;;0.93;;
31378;SDS011;61664;48.112;11.662;2022-11-15T14:14:58;1.15;;;0.80;;
31378;SDS011;61664;48.112;11.662;2022-11-15T14:17:45;1.25;;;1.15;;
31378;SDS011;61664;48.112;11.662;2022-11-15T14:22:57;1.95;;;0.80;;
31378;SDS011;61664;48.112;11.662;2022-11-15T14:25:28;0.90;;;0.90;;
31378;SDS011;61664;48.112;11.662;2022-11-15T14:36:02;1.50;;;1.40;;
31378;SDS011;61664;48.112;11.662;2022-11-15T14:38:36;2.20;;;2.00;;
31378;SDS011;61664;48.112;11.662;2022-11-15T14:41:03;1.80;;;1.67;;
31378;SDS011;61664;48.112;11.662;2022-11-15T14:43:30;7.25;;;2.22;;
31378;SDS011;61664;48.112;11.662;2022-11-15T14:45:58;3.63;;;1.58;;
31378;SDS011;61664;48.112;11.662;2022-11-15T14:48:25;1.83;;;1.40;;
31378;SDS011;61664;48.112;11.662;2022-11-15T14:50:52;1.02;;;1.02;;
31378;SDS011;61664;48.112;11.662;2022-11-15T14:53:19;1.38;;;1.27;;
31378;SDS011;61664;48.112;11.662;2022-11-15T14:55:46;1.27;;;1.17;;
31378;SDS011;61664;48.112;11.662;2022-11-15T14:58:13;2.08;;;1.60;;
31378;SDS011;61664;48.112;11.662;2022-11-15T15:00:40;0.75;;;0.70;;
31378;SDS011;61664;48.112;11.662;2022-11-15T15:03:08;1.00;;;0.90;;
31378;SDS011;61664;48.112;11.662;2022-11-15T15:05:40;1.30;;;1.10;;
31378;SDS011;61664;48.112;11.662;2022-11-15T15:08:09;1.25;;;1.15;;
31378;SDS011;61664;48.112;11.662;2022-11-15T15:10:41;2.50;;;1.48;;
31378;SDS011;61664;48.112;11.662;2022-11-15T15:13:21;1.50;;;1.40;;
31378;SDS011;61664;48.112;11.662;2022-11-15T15:15:50;1.20;;;1.10;;
31378;SDS011;61664;48.112;11.662;2022-11-15T15:18:18;2.85;;;1.40;;
31378;SDS011;61664;48.112;11.662;2022-11-15T15:20:55;2.60;;;2.33;;
31378;SDS011;61664;48.112;11.662;2022-11-15T15:23:33;3.17;;;2.88;;
31378;SDS011;61664;48.112;11.662;2022-11-15T15:26:01;2.58;;;2.38;;
31378;SDS011;61664;48.112;11.662;2022-11-15T15:28:29;2.67;;;2.47;;
31378;SDS011;61664;48.112;11.662;2022-11-15T15:31:00;2.10;;;1.70;;
31378;SDS011;61664;48.112;11.662;2022-11-15T15:33:27;3.35;;;2.50;;
31378;SDS011;61664;48.112;11.662;2022-11-15T15:35:54;3.13;;;2.28;;
31378;SDS011;61664;48.112;11.662;2022-11-15T15:38:21;3.90;;;1.80;;
31378;SDS011;61664;48.112;11.662;2022-11-15T15:40:48;2.13;;;1.08;;
31378;SDS011;61664;48.112;11.662;2022-11-15T15:43:17;1.23;;;1.13;;
31378;SDS011;61664;48.112;11.662;2022-11-15T15:45:43;1.45;;;1.27;;
31378;SDS011;61664;48.112;11.662;2022-11-15T15:48:12;1.98;;;1.38;;
31378;SDS011;61664;48.112;11.662;2022-11-15T15:50:43;3.17;;;2.20;;
31378;SDS011;61664;48.112;11.662;2022-11-15T15:53:11;1.77;;;1.55;;
31378;SDS011;61664;48.112;11.662;2022-11-15T15:55:39;1.65;;;1.55;;
31378;SDS011;61664;48.112;11.662;2022-11-15T15:58:06;2.47;;;1.75;;
31378;SDS011;61664;48.112;11.662;2022-11-15T16:00:34;1.83;;;1.70;;
31378;SDS011;61664;48.112;11.662;2022-11-15T16:03:03;2.67;;;2.22;;
31378;SDS011;61664;48.112;11.662;2022-11-15T16:05:30;2.45;;;2.25;;
31378;SDS011;61664;48.112;11.662;2022-11-15T16:07:57;4.72;;;2.90;;
31378;SDS011;61664;48.112;11.662;2022-11-15T16:10:26;3.45;;;3.15;;
31378;SDS011;61664;48.112;11.662;2022-11-15T16:12:56;4.88;;;3.35;;
31378;SDS011;61664;48.112;11.662;2022-11-15T16:15:25;6.13;;;5.53;;
31378;SDS011;61664;48.112;11.662;2022-11-15T16:17:57;8.77;;;5.03;;
31378;SDS011;61664;48.112;11.662;2022-11-15T16:20:29;8.10;;;4.40;;
31378;SDS011;61664;48.112;11.662;2022-11-15T16:23:08;8.05;;;5.03;;
31378;SDS011;61664;48.112;11.662;2022-11-15T16:25:53;5.22;;;4.72;;
31378;SDS011;61664;48.112;11.662;2022-11-15T16:28:26;5.90;;;4.18;;
31378;SDS011;61664;48.112;11.662;2022-11-15T16:33:31;5.15;;;4.63;;
31378;SDS011;61664;48.112;11.662;2022-11-15T16:35:59;5.25;;;4.75;;
31378;SDS011;61664;48.112;11.662;2022-11-15T16:38:26;6.50;;;4.47;;
31378;SDS011;61664;48.112;11.662;2022-11-15T16:40:53;7.65;;;4.47;;
31378;SDS011;61664;48.112;11.662;2022-11-15T16:43:20;7.55;;;4.43;;
31378;SDS011;61664;48.112;11.662;2022-11-15T16:45:46;5.50;;;3.95;;
31378;SDS011;61664;48.112;11.662;2022-11-15T16:48:23;8.63;;;5.25;;
31378;SDS011;61664;48.112;11.662;2022-11-15T16:50:56;4.15;;;3.58;;
31378;SDS011;61664;48.112;11.662;2022-11-15T16:53:24;6.30;;;4.00;;
31378;SDS011;61664;48.112;11.662;2022-11-15T16:55:56;6.25;;;4.43;;
31378;SDS011;61664;48.112;11.662;2022-11-15T16:58:23;10.13;;;6.70;;
31378;SDS011;61664;48.112;11.662;2022-11-15T17:00:51;6.90;;;6.20;;
31378;SDS011;61664;48.112;11.662;2022-11-15T17:03:20;20.17;;;8.10;;